Time;durP1;ratioP1;P1;durP2;ratioP2;P2;SDS_P1;SDS_P2;PMS_P1;PMS_P2;Temp;Humidity;BMP_temperature;BMP_pressure;BME280_temperature;BME280_humidity;BME280_pressure;Samples;Min_cycle;Max_cycle;Signal;HPM_P1;HPM_P2
2023/06/23 00:01:38;;;;;;;7.77;7.10;;;;;;;;;;5093231;28;20862;-59
2023/06/23 00:04:07;;;;;;;7.53;6.93;;;;;;;;;;5093376;28;20449;-59
2023/06/23 00:06:34;;;;;;;10.07;8.60;;;;;;;;;;5093280;28;20451;-59
2023/06/23 00:09:07;;;;;;;7.83;7.13;;;;;;;;;;5093339;28;20869;-59
2023/06/23 00:11:34;;;;;;;9.03;8.33;;;;;;;;;;5093212;28;20544;-59
2023/06/23 00:14:01;;;;;;;8.00;7.30;;;;;;;;;;5093077;28;20847;-59
2023/06/23 00:16:29;;;;;;;9.03;8.23;;;;;;;;;;5092700;28;20499;-59
2023/06/23 00:18:55;;;;;;;7.80;7.10;;;;;;;;;;5093175;28;20456;-59
2023/06/23 00:21:24;;;;;;;8.13;7.53;;;;;;;;;;5093183;28;20552;-59
2023/06/23 00:23:50;;;;;;;7.27;6.63;;;;;;;;;;5093109;28;20445;-59
2023/06/23 00:26:17;;;;;;;8.23;7.53;;;;;;;;;;5093059;28;20897;-59
2023/06/23 00:28:44;;;;;;;7.70;7.00;;;;;;;;;;5092923;28;20482;-59
2023/06/23 00:31:11;;;;;;;7.57;6.97;;;;;;;;;;5093191;28;20532;-59
2023/06/23 00:33:38;;;;;;;7.50;6.80;;;;;;;;;;5093131;28;20957;-59
2023/06/23 00:36:05;;;;;;;6.70;6.30;;;;;;;;;;5092937;28;20489;-59
2023/06/23 00:38:34;;;;;;;7.90;7.30;;;;;;;;;;5092822;28;20949;-59
2023/06/23 00:41:01;;;;;;;7.87;7.27;;;;;;;;;;5092860;28;20465;-59
2023/06/23 00:43:30;;;;;;;8.30;7.70;;;;;;;;;;5092835;28;20457;-59
2023/06/23 00:45:57;;;;;;;8.37;7.63;;;;;;;;;;5093258;28;20449;-59
2023/06/23 00:48:24;;;;;;;8.77;7.73;;;;;;;;;;5097059;28;21024;-59
2023/06/23 00:50:51;;;;;;;7.87;7.27;;;;;;;;;;5096889;28;20455;-59
2023/06/23 00:53:18;;;;;;;8.10;7.40;;;;;;;;;;5096825;28;20485;-59
2023/06/23 00:55:47;;;;;;;8.80;8.10;;;;;;;;;;5096500;28;20575;-59
2023/06/23 00:58:13;;;;;;;9.73;8.57;;;;;;;;;;5096613;28;20546;-59
2023/06/23 01:00:41;;;;;;;8.70;8.00;;;;;;;;;;5096792;28;20554;-59
2023/06/23 01:03:07;;;;;;;9.33;7.90;;;;;;;;;;5096812;28;20456;-59
2023/06/23 01:05:35;;;;;;;9.87;8.97;;;;;;;;;;5096552;28;20449;-59
2023/06/23 01:08:11;;;;;;;8.13;7.43;;;;;;;;;;5096526;28;20813;-59
2023/06/23 01:10:40;;;;;;;8.00;7.30;;;;;;;;;;5096403;28;20453;-59
2023/06/23 01:13:11;;;;;;;8.87;8.20;;;;;;;;;;5096568;28;20537;-59
2023/06/23 01:15:40;;;;;;;8.10;7.30;;;;;;;;;;5096469;28;20521;-59
2023/06/23 01:18:10;;;;;;;8.97;8.17;;;;;;;;;;5096248;28;20932;-59
2023/06/23 01:20:39;;;;;;;8.83;7.93;;;;;;;;;;5096245;28;20479;-59
2023/06/23 01:23:16;;;;;;;10.33;8.80;;;;;;;;;;5096073;28;20537;-59
2023/06/23 01:25:53;;;;;;;8.83;8.13;;;;;;;;;;5096361;28;20793;-60
2023/06/23 01:28:43;;;;;;;8.93;8.17;;;;;;;;;;5096256;28;20557;-59
2023/06/23 01:31:13;;;;;;;8.70;7.77;;;;;;;;;;5075925;28;20448;-59
2023/06/23 01:33:43;;;;;;;9.57;8.70;;;;;;;;;;5096024;28;20447;-59
2023/06/23 01:36:13;;;;;;;8.47;7.77;;;;;;;;;;5096026;28;20486;-59
2023/06/23 01:38:41;;;;;;;9.13;8.23;;;;;;;;;;5096042;28;20839;-59
2023/06/23 01:41:10;;;;;;;8.87;8.17;;;;;;;;;;5095945;28;20537;-59
2023/06/23 01:43:37;;;;;;;8.83;8.10;;;;;;;;;;5095826;28;20455;-59
2023/06/23 01:46:06;;;;;;;10.00;9.00;;;;;;;;;;5095693;28;20462;-59
2023/06/23 01:48:35;;;;;;;8.10;7.50;;;;;;;;;;5095920;28;20449;-59
2023/06/23 01:51:03;;;;;;;9.83;8.90;;;;;;;;;;5095836;28;20450;-59
2023/06/23 01:53:32;;;;;;;9.33;8.40;;;;;;;;;;5095726;28;20449;-59
2023/06/23 01:56:00;;;;;;;7.97;7.17;;;;;;;;;;5095395;28;20492;-59
2023/06/23 01:58:27;;;;;;;7.70;7.10;;;;;;;;;;5094493;28;20533;-59
2023/06/23 02:00:55;;;;;;;9.13;8.33;;;;;;;;;;5095689;28;20496;-59
2023/06/23 02:03:22;;;;;;;10.47;9.57;;;;;;;;;;5095590;28;20444;-59
2023/06/23 02:05:53;;;;;;;9.27;8.47;;;;;;;;;;5095486;28;20529;-59
2023/06/23 02:08:20;;;;;;;8.83;8.07;;;;;;;;;;5095402;28;20489;-59
2023/06/23 02:10:47;;;;;;;8.70;7.97;;;;;;;;;;5095264;28;20448;-60
2023/06/23 02:13:16;;;;;;;8.93;8.20;;;;;;;;;;5095515;28;20458;-59
2023/06/23 02:15:43;;;;;;;8.53;7.87;;;;;;;;;;5095286;28;20491;-59
2023/06/23 02:18:11;;;;;;;8.80;8.00;;;;;;;;;;5095325;28;20454;-59
2023/06/23 02:20:40;;;;;;;9.33;8.50;;;;;;;;;;5095154;28;20805;-59
2023/06/23 02:23:09;;;;;;;9.17;8.30;;;;;;;;;;5095098;28;20454;-59
2023/06/23 02:25:36;;;;;;;9.20;8.40;;;;;;;;;;5094948;28;20458;-59
2023/06/23 02:28:03;;;;;;;7.70;7.07;;;;;;;;;;5095170;28;20472;-59
2023/06/23 02:30:30;;;;;;;9.03;8.20;;;;;;;;;;5095070;28;20474;-59
2023/06/23 02:32:57;;;;;;;8.47;7.77;;;;;;;;;;5094949;28;20478;-59
2023/06/23 02:35:24;;;;;;;8.63;8.00;;;;;;;;;;5094780;28;20478;-59
2023/06/23 02:37:54;;;;;;;9.73;8.93;;;;;;;;;;5094782;28;20450;-59
2023/06/23 02:40:24;;;;;;;10.07;9.23;;;;;;;;;;5094682;28;20450;-59
2023/06/23 02:42:52;;;;;;;10.17;9.17;;;;;;;;;;5094862;28;20581;-59
2023/06/23 02:45:20;;;;;;;10.00;9.10;;;;;;;;;;5094741;28;20461;-59
2023/06/23 02:47:49;;;;;;;9.20;8.40;;;;;;;;;;5094626;28;20449;-59
2023/06/23 02:50:17;;;;;;;10.03;9.13;;;;;;;;;;5094509;28;20479;-59
2023/06/23 02:52:46;;;;;;;8.43;7.73;;;;;;;;;;5094412;28;20453;-59
2023/06/23 02:55:13;;;;;;;9.83;8.97;;;;;;;;;;5094545;28;20505;-59
2023/06/23 02:57:42;;;;;;;10.50;9.57;;;;;;;;;;5094169;28;20900;-59
2023/06/23 03:00:16;;;;;;;9.43;8.60;;;;;;;;;;5094398;28;20541;-59
2023/06/23 03:02:44;;;;;;;9.13;8.43;;;;;;;;;;5094374;28;20541;-59
2023/06/23 03:05:11;;;;;;;9.03;8.10;;;;;;;;;;5094169;28;20446;-59
2023/06/23 03:07:38;;;;;;;8.63;7.87;;;;;;;;;;5094366;28;20451;-59
2023/06/23 03:10:06;;;;;;;8.50;7.70;;;;;;;;;;5094063;28;20451;-59
2023/06/23 03:12:33;;;;;;;8.73;8.03;;;;;;;;;;5094111;28;20470;-59
2023/06/23 03:15:01;;;;;;;9.53;8.63;;;;;;;;;;5094019;28;20460;-59
2023/06/23 03:17:30;;;;;;;8.80;7.97;;;;;;;;;;5093949;28;20540;-59
2023/06/23 03:20:02;;;;;;;8.07;7.40;;;;;;;;;;5094130;28;20452;-59
2023/06/23 03:22:31;;;;;;;8.27;7.47;;;;;;;;;;5094059;28;20456;-59
2023/06/23 03:25:02;;;;;;;9.13;8.27;;;;;;;;;;5093917;28;20453;-59
2023/06/23 03:27:29;;;;;;;9.20;8.47;;;;;;;;;;5093817;28;20445;-59
2023/06/23 03:30:02;;;;;;;8.20;7.60;;;;;;;;;;5093819;28;20968;-59
2023/06/23 03:32:33;;;;;;;9.20;8.30;;;;;;;;;;5093996;28;20437;-59
2023/06/23 03:35:03;;;;;;;9.30;8.40;;;;;;;;;;5093793;28;20957;-59
2023/06/23 03:37:32;;;;;;;8.93;8.13;;;;;;;;;;5093805;28;20819;-59
2023/06/23 03:40:01;;;;;;;9.50;8.60;;;;;;;;;;5093612;28;20450;-59
2023/06/23 03:42:28;;;;;;;10.07;9.20;;;;;;;;;;5093502;28;20496;-59
2023/06/23 03:44:56;;;;;;;10.63;9.80;;;;;;;;;;5093414;28;20960;-59
2023/06/23 03:47:25;;;;;;;9.00;8.30;;;;;;;;;;5093692;28;20484;-59
2023/06/23 03:49:55;;;;;;;9.07;8.30;;;;;;;;;;5093598;28;20486;-59
2023/06/23 03:52:24;;;;;;;9.30;8.60;;;;;;;;;;5093501;28;20495;-59
2023/06/23 03:54:52;;;;;;;8.90;8.13;;;;;;;;;;5093438;28;20884;-59
2023/06/23 03:57:21;;;;;;;9.40;8.50;;;;;;;;;;5093000;28;21000;-59
2023/06/23 03:59:50;;;;;;;9.47;8.13;;;;;;;;;;5093469;28;20452;-59
2023/06/23 04:02:20;;;;;;;9.80;8.87;;;;;;;;;;5093324;28;20880;-59
2023/06/23 04:04:48;;;;;;;9.87;8.97;;;;;;;;;;5093356;28;20457;-59
2023/06/23 04:07:16;;;;;;;9.40;8.00;;;;;;;;;;5093249;28;20456;-59
2023/06/23 04:09:45;;;;;;;9.13;8.43;;;;;;;;;;5093138;28;20453;-59
2023/06/23 04:12:14;;;;;;;9.43;8.73;;;;;;;;;;5093087;28;20967;-59
2023/06/23 04:14:43;;;;;;;9.73;8.80;;;;;;;;;;5093196;28;20560;-59
2023/06/23 04:17:11;;;;;;;9.50;8.80;;;;;;;;;;5093062;28;20539;-59
2023/06/23 04:19:40;;;;;;;9.60;8.70;;;;;;;;;;5093116;28;20540;-59
2023/06/23 04:22:08;;;;;;;8.47;7.77;;;;;;;;;;5092411;28;20810;-59
2023/06/23 04:24:38;;;;;;;9.47;8.67;;;;;;;;;;5093176;28;20487;-59
2023/06/23 04:27:06;;;;;;;8.67;7.97;;;;;;;;;;5093138;28;20477;-59
2023/06/23 04:29:36;;;;;;;8.97;8.07;;;;;;;;;;5092988;28;20536;-59
2023/06/23 04:32:03;;;;;;;8.30;7.60;;;;;;;;;;5092963;28;20457;-59
2023/06/23 04:34:30;;;;;;;9.57;8.63;;;;;;;;;;5093000;28;20540;-59
2023/06/23 04:37:01;;;;;;;8.77;8.17;;;;;;;;;;5092876;28;20826;-59
2023/06/23 04:39:30;;;;;;;9.20;7.90;;;;;;;;;;5092976;28;20465;-60
2023/06/23 04:42:02;;;;;;;11.03;9.93;;;;;;;;;;5092818;28;20454;-59
2023/06/23 04:44:29;;;;;;;11.17;10.00;;;;;;;;;;5092888;28;20453;-59
2023/06/23 04:46:59;;;;;;;9.30;8.60;;;;;;;;;;5092712;28;20534;-59
2023/06/23 04:49:28;;;;;;;10.37;9.50;;;;;;;;;;5092700;28;20537;-59
2023/06/23 04:51:56;;;;;;;10.83;9.80;;;;;;;;;;5092988;28;20809;-59
2023/06/23 04:54:26;;;;;;;10.20;9.40;;;;;;;;;;5093441;28;20456;-59
2023/06/23 04:57:00;;;;;;;9.47;8.57;;;;;;;;;;5092551;28;20493;-59
2023/06/23 04:59:31;;;;;;;10.33;9.33;;;;;;;;;;5092722;28;20446;-59
2023/06/23 05:01:58;;;;;;;11.50;9.47;;;;;;;;;;5092522;28;20447;-59
2023/06/23 05:04:26;;;;;;;9.47;8.57;;;;;;;;;;5092693;28;20537;-59
2023/06/23 05:06:54;;;;;;;10.30;9.50;;;;;;;;;;5092601;28;20449;-59
2023/06/23 05:09:23;;;;;;;9.70;8.90;;;;;;;;;;5092539;28;20449;-59
2023/06/23 05:11:50;;;;;;;11.00;10.10;;;;;;;;;;5092549;28;20445;-59
2023/06/23 05:14:17;;;;;;;11.67;10.57;;;;;;;;;;5092460;28;20534;-59
2023/06/23 05:16:46;;;;;;;11.90;10.80;;;;;;;;;;5092575;28;20492;-59
2023/06/23 05:19:13;;;;;;;12.53;10.60;;;;;;;;;;5092623;28;20544;-59
2023/06/23 05:21:42;;;;;;;10.30;9.50;;;;;;;;;;5092551;28;20453;-59
2023/06/23 05:24:10;;;;;;;10.50;9.60;;;;;;;;;;5092353;28;20524;-59
2023/06/23 05:26:37;;;;;;;15.37;13.77;;;;;;;;;;5092314;28;20490;-60
2023/06/23 05:29:07;;;;;;;11.33;10.43;;;;;;;;;;5092341;28;20540;-59
2023/06/23 05:31:36;;;;;;;9.97;9.17;;;;;;;;;;5092537;28;20890;-60
2023/06/23 05:34:07;;;;;;;10.83;9.87;;;;;;;;;;5094486;28;20457;-59
2023/06/23 05:36:34;;;;;;;11.50;10.30;;;;;;;;;;5095765;28;20470;-59
2023/06/23 05:39:01;;;;;;;10.80;9.90;;;;;;;;;;5095750;28;20450;-59
2023/06/23 05:41:28;;;;;;;10.07;9.27;;;;;;;;;;5095705;28;20449;-59
2023/06/23 05:43:55;;;;;;;11.30;10.20;;;;;;;;;;5096004;28;20453;-59
2023/06/23 05:46:24;;;;;;;10.47;9.67;;;;;;;;;;5096079;28;20450;-59
2023/06/23 05:48:52;;;;;;;11.73;10.73;;;;;;;;;;5095706;28;20453;-59
2023/06/23 05:51:22;;;;;;;12.70;11.70;;;;;;;;;;5095688;28;20456;-59
2023/06/23 05:53:53;;;;;;;12.07;10.87;;;;;;;;;;5095532;28;20458;-59
2023/06/23 05:56:23;;;;;;;11.37;10.37;;;;;;;;;;5095465;28;20495;-59
2023/06/23 05:58:52;;;;;;;12.67;11.57;;;;;;;;;;5095501;28;20460;-59
2023/06/23 06:01:21;;;;;;;10.57;9.67;;;;;;;;;;5095473;28;20456;-59
2023/06/23 06:03:53;;;;;;;13.37;12.17;;;;;;;;;;5095418;28;20787;-59
2023/06/23 06:06:22;;;;;;;12.33;11.30;;;;;;;;;;5095152;28;20899;-60
2023/06/23 06:08:49;;;;;;;12.93;11.83;;;;;;;;;;5095144;28;20938;-59
2023/06/23 06:11:17;;;;;;;12.80;11.57;;;;;;;;;;5095206;28;20808;-59
2023/06/23 06:13:45;;;;;;;12.53;11.43;;;;;;;;;;5095238;28;20538;-59
2023/06/23 06:16:12;;;;;;;12.00;10.90;;;;;;;;;;5095000;28;20457;-59
2023/06/23 06:18:40;;;;;;;11.60;10.60;;;;;;;;;;5095091;28;20787;-59
2023/06/23 06:21:08;;;;;;;12.30;11.30;;;;;;;;;;5094875;28;20557;-59
2023/06/23 06:23:37;;;;;;;13.97;12.67;;;;;;;;;;5095023;28;20539;-59
2023/06/23 06:26:05;;;;;;;13.40;12.20;;;;;;;;;;5095066;28;20463;-59
2023/06/23 06:28:33;;;;;;;13.37;12.27;;;;;;;;;;5094876;28;20450;-59
2023/06/23 06:31:00;;;;;;;13.43;12.33;;;;;;;;;;5094810;28;20562;-59
2023/06/23 06:33:28;;;;;;;12.80;11.67;;;;;;;;;;5094685;28;20501;-59
2023/06/23 06:35:58;;;;;;;12.20;11.00;;;;;;;;;;5094490;28;20537;-59
2023/06/23 06:38:26;;;;;;;14.70;11.50;;;;;;;;;;5094793;28;20454;-59
2023/06/23 06:40:54;;;;;;;13.90;12.70;;;;;;;;;;5094667;28;20529;-59
2023/06/23 06:43:21;;;;;;;13.80;12.50;;;;;;;;;;5094520;28;20487;-59
2023/06/23 06:45:50;;;;;;;14.60;13.20;;;;;;;;;;5094016;28;20478;-59
2023/06/23 06:48:18;;;;;;;15.77;14.27;;;;;;;;;;5094236;28;20888;-59
2023/06/23 06:50:45;;;;;;;15.67;14.20;;;;;;;;;;5094561;28;20481;-60
2023/06/23 06:53:12;;;;;;;14.30;13.17;;;;;;;;;;5094510;28;20453;-59
2023/06/23 06:55:39;;;;;;;15.03;13.83;;;;;;;;;;5094187;28;20537;-59
2023/06/23 06:58:07;;;;;;;13.80;12.60;;;;;;;;;;5094252;28;20485;-59
2023/06/23 07:00:34;;;;;;;14.10;12.90;;;;;;;;;;5094136;28;20546;-59
2023/06/23 07:03:02;;;;;;;13.50;12.50;;;;;;;;;;5094257;28;20454;-59
2023/06/23 07:05:29;;;;;;;13.47;12.10;;;;;;;;;;5094234;28;20458;-59
2023/06/23 07:07:56;;;;;;;14.17;12.97;;;;;;;;;;5094221;28;20450;-59
2023/06/23 07:10:22;;;;;;;14.33;13.03;;;;;;;;;;5094402;28;20482;-59
2023/06/23 07:12:49;;;;;;;12.77;11.53;;;;;;;;;;5094121;28;20885;-59
2023/06/23 07:15:17;;;;;;;11.47;10.53;;;;;;;;;;5093813;28;20540;-59
2023/06/23 07:17:44;;;;;;;12.50;11.40;;;;;;;;;;5094028;28;20478;-59
2023/06/23 07:20:12;;;;;;;12.17;10.97;;;;;;;;;;5093937;28;20458;-59
2023/06/23 07:22:39;;;;;;;12.47;11.47;;;;;;;;;;5092631;28;20459;-59
2023/06/23 07:25:06;;;;;;;12.27;11.20;;;;;;;;;;5091386;28;20921;-59
2023/06/23 07:27:33;;;;;;;12.03;10.93;;;;;;;;;;5090958;28;20448;-60
2023/06/23 07:30:00;;;;;;;10.93;10.03;;;;;;;;;;5093733;28;20534;-59
2023/06/23 07:32:28;;;;;;;10.30;9.50;;;;;;;;;;5093365;28;20468;-59
2023/06/23 07:34:55;;;;;;;11.47;10.47;;;;;;;;;;5093213;28;20438;-59
2023/06/23 07:37:22;;;;;;;12.30;11.10;;;;;;;;;;5093009;28;20497;-59
2023/06/23 07:39:49;;;;;;;12.13;10.97;;;;;;;;;;5092955;28;20714;-59
2023/06/23 07:42:16;;;;;;;11.07;10.20;;;;;;;;;;5092923;28;20770;-59
2023/06/23 07:44:43;;;;;;;10.17;9.37;;;;;;;;;;5093102;28;20446;-59
2023/06/23 07:47:11;;;;;;;12.40;11.30;;;;;;;;;;5092977;28;20574;-60
2023/06/23 07:49:39;;;;;;;13.43;12.33;;;;;;;;;;5092896;28;20491;-60
2023/06/23 07:52:06;;;;;;;15.60;14.20;;;;;;;;;;5092683;28;20466;-59
2023/06/23 07:54:33;;;;;;;16.63;15.13;;;;;;;;;;5090171;28;20521;-59
2023/06/23 07:57:01;;;;;;;17.30;15.70;;;;;;;;;;5091824;28;20558;-60
2023/06/23 07:59:28;;;;;;;17.73;16.13;;;;;;;;;;5093333;28;20529;-60
2023/06/23 08:01:55;;;;;;;16.73;15.20;;;;;;;;;;5093266;28;20536;-59
2023/06/23 08:04:22;;;;;;;17.60;16.10;;;;;;;;;;5093051;28;20492;-59
2023/06/23 08:06:51;;;;;;;18.40;16.80;;;;;;;;;;5092997;28;20497;-60
2023/06/23 08:09:18;;;;;;;17.83;16.13;;;;;;;;;;5092913;28;20541;-59
2023/06/23 08:11:45;;;;;;;17.87;16.27;;;;;;;;;;5093167;28;20537;-60
2023/06/23 08:14:12;;;;;;;17.40;15.80;;;;;;;;;;5092774;28;20472;-60
2023/06/23 08:16:39;;;;;;;18.20;16.50;;;;;;;;;;5092319;28;20507;-59
2023/06/23 08:19:06;;;;;;;17.53;15.97;;;;;;;;;;5092667;28;20445;-59
2023/06/23 08:21:35;;;;;;;17.20;15.60;;;;;;;;;;5092769;28;20443;-59
2023/06/23 08:24:03;;;;;;;17.10;15.60;;;;;;;;;;5092763;28;20457;-59
2023/06/23 08:26:30;;;;;;;18.23;16.53;;;;;;;;;;5092441;28;20454;-60
2023/06/23 08:28:57;;;;;;;16.90;15.40;;;;;;;;;;5092722;28;20473;-59
2023/06/23 08:31:24;;;;;;;15.90;14.50;;;;;;;;;;5092606;28;20533;-60
2023/06/23 08:33:51;;;;;;;18.00;16.33;;;;;;;;;;5092403;28;21051;-60
2023/06/23 08:36:18;;;;;;;17.67;16.10;;;;;;;;;;5092194;28;20472;-60
2023/06/23 08:38:45;;;;;;;18.50;16.10;;;;;;;;;;5092436;28;20485;-60
2023/06/23 08:41:13;;;;;;;16.93;15.20;;;;;;;;;;5089760;28;20447;-60
2023/06/23 08:43:44;;;;;;;16.10;14.63;;;;;;;;;;5089782;28;20540;-60
2023/06/23 08:46:13;;;;;;;17.00;15.40;;;;;;;;;;5092302;28;20439;-59
2023/06/23 08:48:45;;;;;;;14.70;13.30;;;;;;;;;;5089639;28;20451;-59
2023/06/23 08:51:12;;;;;;;15.80;14.50;;;;;;;;;;5092113;28;20800;-60
2023/06/23 08:53:39;;;;;;;15.43;14.23;;;;;;;;;;5092309;28;20940;-60
2023/06/23 08:56:06;;;;;;;16.30;14.90;;;;;;;;;;5092500;28;20504;-59
2023/06/23 08:58:35;;;;;;;18.07;16.23;;;;;;;;;;5092581;28;21050;-59
2023/06/23 09:01:01;;;;;;;17.43;15.93;;;;;;;;;;5092590;28;20450;-60
2023/06/23 09:03:28;;;;;;;16.47;14.97;;;;;;;;;;5092208;28;20457;-60
2023/06/23 09:05:55;;;;;;;16.67;15.27;;;;;;;;;;5092719;28;20450;-60
2023/06/23 09:08:22;;;;;;;15.80;13.77;;;;;;;;;;5095231;28;20453;-59
2023/06/23 09:10:50;;;;;;;17.80;16.20;;;;;;;;;;5096420;28;20452;-59
2023/06/23 09:13:23;;;;;;;17.87;16.30;;;;;;;;;;5096280;28;20452;-59
2023/06/23 09:15:52;;;;;;;18.47;16.63;;;;;;;;;;5096374;28;20450;-59
2023/06/23 09:18:19;;;;;;;16.53;15.03;;;;;;;;;;5095965;28;20482;-58
2023/06/23 09:20:47;;;;;;;17.47;15.87;;;;;;;;;;5096325;28;20459;-59
2023/06/23 09:23:15;;;;;;;17.10;15.50;;;;;;;;;;5095793;28;20970;-59
2023/06/23 09:25:44;;;;;;;16.17;14.87;;;;;;;;;;5095909;28;20938;-59
2023/06/23 09:28:21;;;;;;;17.20;15.80;;;;;;;;;;5095823;28;20537;-59
2023/06/23 09:30:48;;;;;;;17.90;14.93;;;;;;;;;;5095707;28;20451;-59
2023/06/23 09:33:17;;;;;;;21.40;14.90;;;;;;;;;;5095597;28;20863;-60
2023/06/23 09:35:46;;;;;;;17.13;15.67;;;;;;;;;;5092934;28;20441;-59
2023/06/23 09:38:13;;;;;;;14.90;13.50;;;;;;;;;;5095385;28;20597;-59
2023/06/23 09:40:40;;;;;;;14.60;13.20;;;;;;;;;;5095276;28;20438;-60
2023/06/23 09:43:07;;;;;;;15.80;14.20;;;;;;;;;;5095221;28;20449;-59
2023/06/23 09:45:34;;;;;;;14.47;13.27;;;;;;;;;;5095435;28;20441;-59
2023/06/23 09:48:01;;;;;;;13.83;12.50;;;;;;;;;;5095196;28;20443;-60
2023/06/23 09:50:29;;;;;;;12.93;11.73;;;;;;;;;;5095160;28;20799;-59
2023/06/23 09:53:05;;;;;;;11.77;10.77;;;;;;;;;;5095161;28;20445;-59
2023/06/23 09:55:32;;;;;;;12.80;11.80;;;;;;;;;;5093261;28;20477;-60
2023/06/23 09:57:59;;;;;;;13.33;12.23;;;;;;;;;;5095075;28;20554;-60
2023/06/23 10:00:32;;;;;;;13.43;12.10;;;;;;;;;;5095184;28;20871;-59
2023/06/23 10:03:00;;;;;;;13.37;12.27;;;;;;;;;;5094755;28;20462;-59
2023/06/23 10:05:26;;;;;;;13.30;12.00;;;;;;;;;;5095002;28;20843;-59
2023/06/23 10:08:07;;;;;;;13.40;12.20;;;;;;;;;;5094655;28;20453;-59
2023/06/23 10:10:34;;;;;;;12.73;11.73;;;;;;;;;;5093467;28;20941;-59
2023/06/23 10:13:01;;;;;;;11.70;10.70;;;;;;;;;;5094734;28;20533;-59
2023/06/23 10:15:29;;;;;;;11.43;10.53;;;;;;;;;;5094548;28;20449;-60
2023/06/23 10:17:56;;;;;;;10.93;9.93;;;;;;;;;;5094352;28;20473;-60
2023/06/23 10:20:23;;;;;;;13.93;12.63;;;;;;;;;;5093574;28;21002;-59
2023/06/23 10:22:51;;;;;;;12.13;11.13;;;;;;;;;;5094574;28;20485;-59
2023/06/23 10:25:21;;;;;;;11.27;10.37;;;;;;;;;;5094465;28;20440;-60
2023/06/23 10:27:51;;;;;;;10.63;9.77;;;;;;;;;;5094513;28;20445;-60
2023/06/23 10:30:19;;;;;;;10.90;10.00;;;;;;;;;;5094734;28;20453;-60
2023/06/23 10:32:49;;;;;;;10.60;9.57;;;;;;;;;;5094758;28;20877;-60
2023/06/23 10:35:19;;;;;;;11.27;10.37;;;;;;;;;;5094664;28;20455;-59
2023/06/23 10:37:48;;;;;;;11.60;10.70;;;;;;;;;;5094547;28;20475;-59
2023/06/23 10:40:18;;;;;;;10.93;9.93;;;;;;;;;;5094045;28;20484;-60
2023/06/23 10:42:48;;;;;;;11.63;10.63;;;;;;;;;;5094133;28;20474;-60
2023/06/23 10:45:14;;;;;;;10.03;9.23;;;;;;;;;;5094181;28;20457;-60
2023/06/23 10:47:42;;;;;;;10.13;9.23;;;;;;;;;;5094196;28;20460;-59
2023/06/23 10:50:10;;;;;;;11.37;10.23;;;;;;;;;;5094580;28;20455;-59
2023/06/23 10:52:37;;;;;;;11.50;10.60;;;;;;;;;;5094122;28;20796;-59
2023/06/23 10:55:27;;;;;;;11.70;10.53;;;;;;;;;;5094106;28;20952;-59
2023/06/23 10:58:09;;;;;;;11.60;10.60;;;;;;;;;;5094064;28;20516;-59
2023/06/23 11:00:37;;;;;;;11.60;10.50;;;;;;;;;;5094512;28;20453;-59
2023/06/23 11:03:08;;;;;;;11.17;10.17;;;;;;;;;;5093788;28;20486;-59
2023/06/23 11:05:35;;;;;;;12.40;11.10;;;;;;;;;;5094216;28;20937;-59
2023/06/23 11:08:02;;;;;;;11.93;10.40;;;;;;;;;;5094079;28;20816;-59
2023/06/23 11:10:44;;;;;;;10.97;9.93;;;;;;;;;;5094067;28;21017;-59
2023/06/23 11:13:13;;;;;;;11.73;10.77;;;;;;;;;;5093821;28;20871;-59
2023/06/23 11:15:41;;;;;;;11.60;10.60;;;;;;;;;;5094127;28;20445;-59
2023/06/23 11:18:08;;;;;;;11.20;10.30;;;;;;;;;;5093940;28;20509;-59
2023/06/23 11:20:36;;;;;;;10.37;9.40;;;;;;;;;;5093943;28;20480;-59
2023/06/23 11:23:06;;;;;;;9.73;8.97;;;;;;;;;;5093729;28;20445;-59
2023/06/23 11:25:34;;;;;;;10.00;9.30;;;;;;;;;;5093977;28;20450;-59
2023/06/23 11:28:19;;;;;;;9.97;9.10;;;;;;;;;;5093867;28;20457;-59
2023/06/23 11:30:57;;;;;;;11.07;9.67;;;;;;;;;;5094159;28;20544;-59
2023/06/23 11:33:27;;;;;;;9.90;8.90;;;;;;;;;;5093623;28;20538;-59
2023/06/23 11:35:54;;;;;;;9.17;8.47;;;;;;;;;;5093808;28;20535;-59
2023/06/23 11:38:21;;;;;;;10.00;9.07;;;;;;;;;;5092113;28;20512;-60
2023/06/23 11:40:50;;;;;;;9.60;8.90;;;;;;;;;;5092698;28;20998;-59
2023/06/23 11:43:18;;;;;;;10.43;9.63;;;;;;;;;;5092975;28;20484;-59
2023/06/23 11:45:46;;;;;;;9.20;8.50;;;;;;;;;;5092687;28;20864;-59
2023/06/23 11:48:14;;;;;;;10.17;9.27;;;;;;;;;;5092807;28;20456;-59
2023/06/23 11:50:42;;;;;;;8.70;8.00;;;;;;;;;;5092163;28;20506;-61
2023/06/23 11:53:09;;;;;;;8.87;7.80;;;;;;;;;;5091825;28;20797;-59
2023/06/23 11:55:36;;;;;;;8.33;7.43;;;;;;;;;;5093170;28;20454;-59
2023/06/23 11:58:03;;;;;;;6.63;6.23;;;;;;;;;;5093050;28;20559;-59
2023/06/23 12:00:31;;;;;;;7.90;7.30;;;;;;;;;;5093009;28;20434;-59
2023/06/23 12:02:59;;;;;;;7.33;6.73;;;;;;;;;;5093411;28;20450;-60
2023/06/23 12:05:27;;;;;;;7.40;6.80;;;;;;;;;;5093539;28;20536;-59
2023/06/23 12:07:55;;;;;;;7.23;6.63;;;;;;;;;;5093081;28;20450;-59
2023/06/23 12:10:24;;;;;;;6.47;6.07;;;;;;;;;;5093054;28;20485;-59
2023/06/23 12:12:53;;;;;;;7.40;6.90;;;;;;;;;;5093028;28;20957;-59
2023/06/23 12:15:22;;;;;;;7.80;7.10;;;;;;;;;;5092834;28;21227;-59
2023/06/23 12:17:49;;;;;;;8.17;7.43;;;;;;;;;;5092815;28;20536;-60
2023/06/23 12:20:19;;;;;;;8.33;7.50;;;;;;;;;;5092795;28;20962;-59
2023/06/23 12:22:50;;;;;;;7.17;6.57;;;;;;;;;;5092988;28;20844;-59
2023/06/23 12:25:18;;;;;;;7.13;6.63;;;;;;;;;;5092938;28;20464;-60
2023/06/23 12:27:51;;;;;;;7.60;7.00;;;;;;;;;;5092827;28;20450;-59
2023/06/23 12:30:18;;;;;;;7.27;6.67;;;;;;;;;;5093095;28;20460;-60
2023/06/23 12:32:45;;;;;;;8.03;7.33;;;;;;;;;;5092675;28;20975;-59
2023/06/23 12:35:13;;;;;;;8.03;7.43;;;;;;;;;;5092725;28;20456;-59
2023/06/23 12:37:45;;;;;;;7.40;6.90;;;;;;;;;;5092635;28;20979;-60
2023/06/23 12:40:28;;;;;;;8.77;7.93;;;;;;;;;;5092521;28;20492;-59
2023/06/23 12:42:56;;;;;;;7.63;6.93;;;;;;;;;;5094797;28;20961;-60
2023/06/23 12:45:24;;;;;;;7.70;7.00;;;;;;;;;;5096925;28;20787;-59
2023/06/23 12:47:52;;;;;;;10.27;7.50;;;;;;;;;;5096776;28;20446;-59
2023/06/23 12:50:26;;;;;;;7.20;6.60;;;;;;;;;;5096941;28;20948;-60
2023/06/23 12:52:53;;;;;;;7.37;6.77;;;;;;;;;;5096988;28;20460;-60
2023/06/23 12:55:22;;;;;;;7.10;6.50;;;;;;;;;;5096290;28;20454;-61
2023/06/23 12:57:49;;;;;;;8.57;7.77;;;;;;;;;;5096648;28;20474;-60
2023/06/23 13:00:17;;;;;;;7.43;6.80;;;;;;;;;;5096437;28;20516;-60
2023/06/23 13:02:44;;;;;;;6.90;6.40;;;;;;;;;;5096407;28;20951;-60
2023/06/23 13:05:11;;;;;;;7.10;6.60;;;;;;;;;;5096305;28;20458;-60
2023/06/23 13:07:38;;;;;;;7.37;6.60;;;;;;;;;;5096708;28;20588;-59
2023/06/23 13:10:06;;;;;;;8.17;7.57;;;;;;;;;;5096430;28;20449;-60
2023/06/23 13:12:35;;;;;;;8.43;7.73;;;;;;;;;;5096440;28;20982;-59
2023/06/23 13:15:02;;;;;;;7.87;7.07;;;;;;;;;;5096398;28;20454;-59
2023/06/23 13:17:29;;;;;;;8.40;7.70;;;;;;;;;;5096165;28;20542;-60
2023/06/23 13:19:55;;;;;;;9.67;8.67;;;;;;;;;;5096063;28;20485;-59
2023/06/23 13:22:22;;;;;;;9.77;8.83;;;;;;;;;;5096138;28;20901;-60
2023/06/23 13:24:49;;;;;;;8.70;8.00;;;;;;;;;;5096223;28;20536;-59
2023/06/23 13:27:16;;;;;;;9.23;8.43;;;;;;;;;;5096158;28;20904;-59
2023/06/23 13:29:45;;;;;;;11.37;10.37;;;;;;;;;;5095867;28;20962;-59
2023/06/23 13:32:13;;;;;;;10.60;9.80;;;;;;;;;;5095889;28;20453;-59
2023/06/23 13:34:40;;;;;;;9.90;9.10;;;;;;;;;;5096085;28;20456;-59
2023/06/23 13:37:07;;;;;;;10.53;9.53;;;;;;;;;;5095949;28;20540;-59
2023/06/23 13:39:35;;;;;;;11.30;10.50;;;;;;;;;;5095761;28;20580;-59
2023/06/23 13:42:02;;;;;;;13.40;11.97;;;;;;;;;;5095828;28;20464;-59
2023/06/23 13:44:29;;;;;;;11.63;10.53;;;;;;;;;;5095747;28;20481;-59
2023/06/23 13:46:57;;;;;;;10.20;9.20;;;;;;;;;;5095478;28;20450;-59
2023/06/23 13:49:25;;;;;;;10.00;9.00;;;;;;;;;;5095721;28;20479;-59
2023/06/23 13:51:52;;;;;;;10.17;9.30;;;;;;;;;;5095652;28;20465;-59
2023/06/23 13:54:19;;;;;;;8.80;8.00;;;;;;;;;;5094385;28;20457;-59
2023/06/23 13:56:46;;;;;;;7.80;7.03;;;;;;;;;;5095366;28;20846;-60
2023/06/23 13:59:13;;;;;;;7.67;7.00;;;;;;;;;;5095237;28;20980;-60
2023/06/23 14:01:40;;;;;;;10.63;7.60;;;;;;;;;;5095637;28;20443;-59
2023/06/23 14:04:08;;;;;;;6.87;6.10;;;;;;;;;;5095518;28;20450;-60
2023/06/23 14:06:35;;;;;;;6.77;6.13;;;;;;;;;;5095361;28;20455;-59
2023/06/23 14:09:03;;;;;;;7.87;7.10;;;;;;;;;;5095225;28;20456;-59
2023/06/23 14:11:30;;;;;;;6.53;5.70;;;;;;;;;;5095262;28;20811;-59
2023/06/23 14:13:57;;;;;;;5.27;4.87;;;;;;;;;;5095141;28;20487;-60
2023/06/23 14:16:24;;;;;;;5.00;4.60;;;;;;;;;;5095096;28;20449;-59
2023/06/23 14:18:51;;;;;;;4.43;4.13;;;;;;;;;;5095003;28;20483;-60
2023/06/23 14:21:19;;;;;;;6.10;5.57;;;;;;;;;;5095099;28;20450;-60
2023/06/23 14:23:46;;;;;;;6.47;5.20;;;;;;;;;;5095038;28;20638;-60
2023/06/23 14:26:13;;;;;;;5.07;4.67;;;;;;;;;;5094968;28;20807;-60
2023/06/23 14:28:40;;;;;;;5.47;5.00;;;;;;;;;;5094823;28;20449;-59
2023/06/23 14:31:07;;;;;;;5.20;4.83;;;;;;;;;;5095188;28;20548;-60
2023/06/23 14:33:34;;;;;;;6.40;5.73;;;;;;;;;;5094847;28;20453;-60
2023/06/23 14:36:02;;;;;;;5.23;4.83;;;;;;;;;;5094867;28;20484;-60
2023/06/23 14:38:31;;;;;;;5.70;4.40;;;;;;;;;;5094684;28;20452;-59